Time;durP1;ratioP1;P1;durP2;ratioP2;P2;SDS_P1;SDS_P2;PMS_P1;PMS_P2;Temp;Humidity;BMP_temperature;BMP_pressure;BME280_temperature;BME280_humidity;BME280_pressure;Samples;Min_cycle;Max_cycle;Signal;HPM_P1;HPM_P2
2021/12/06 00:02:11;;;;;;;7.13;3.63;;;6.00;89.20;;;;;;6231930;28;20060;-81
2021/12/06 00:05:15;;;;;;;5.57;3.10;;;6.00;89.20;;;;;;6231730;28;20050;-82
2021/12/06 00:08:19;;;;;;;10.55;3.30;;;5.90;89.40;;;;;;6231580;28;20046;-82
2021/12/06 00:11:22;;;;;;;5.32;3.03;;;5.90;89.20;;;;;;6232602;28;20488;-82
2021/12/06 00:14:27;;;;;;;6.10;3.17;;;5.80;89.30;;;;;;6231401;28;20054;-83
2021/12/06 00:17:29;;;;;;;8.98;2.40;;;5.70;89.20;;;;;;6230670;28;20038;-80
2021/12/06 00:20:31;;;;;;;7.82;3.08;;;5.70;89.30;;;;;;6233914;28;20054;-82
2021/12/06 00:23:34;;;;;;;9.43;3.58;;;5.60;89.60;;;;;;6234705;28;20054;-80
2021/12/06 00:26:36;;;;;;;10.57;3.97;;;5.50;89.70;;;;;;6236038;28;20077;-81
2021/12/06 00:29:38;;;;;;;8.82;4.22;;;5.40;89.80;;;;;;6238493;28;20053;-80
2021/12/06 00:32:40;;;;;;;8.13;3.08;;;5.30;89.80;;;;;;6235602;28;20749;-80
2021/12/06 00:35:43;;;;;;;6.25;2.75;;;5.10;90.00;;;;;;6237441;28;20056;-80
2021/12/06 00:38:46;;;;;;;6.78;3.35;;;5.00;90.00;;;;;;6236906;28;20109;-79
2021/12/06 00:41:48;;;;;;;4.82;2.83;;;4.80;90.00;;;;;;6238254;28;20145;-79
2021/12/06 00:44:51;;;;;;;8.18;3.63;;;4.60;90.10;;;;;;6237681;28;20145;-79
2021/12/06 00:47:53;;;;;;;5.93;3.85;;;4.50;90.20;;;;;;6241832;28;20453;-80
2021/12/06 00:50:55;;;;;;;7.35;4.00;;;4.30;90.30;;;;;;6244488;28;20049;-81
2021/12/06 00:53:58;;;;;;;8.68;4.45;;;4.20;90.40;;;;;;6243339;28;20110;-80
2021/12/06 00:57:00;;;;;;;10.50;5.50;;;4.20;90.40;;;;;;6243287;28;20073;-80
2021/12/06 01:00:02;;;;;;;7.70;4.30;;;4.10;90.50;;;;;;6240731;28;20042;-81
2021/12/06 01:03:06;;;;;;;10.82;4.57;;;4.10;90.50;;;;;;6243036;28;20511;-79
2021/12/06 01:06:11;;;;;;;14.98;7.38;;;4.00;90.50;;;;;;6241991;28;20137;-81
2021/12/06 01:09:14;;;;;;;9.77;5.25;;;4.00;90.40;;;;;;6239471;28;20057;-79
2021/12/06 01:12:16;;;;;;;13.48;5.50;;;4.00;90.40;;;;;;6241716;28;20582;-80
2021/12/06 01:15:18;;;;;;;8.38;4.63;;;3.90;90.40;;;;;;6240309;28;20113;-81
2021/12/06 01:18:21;;;;;;;7.40;3.78;;;3.80;90.30;;;;;;6241643;28;20045;-82
2021/12/06 01:21:28;;;;;;;7.45;3.50;;;3.70;90.30;;;;;;6240230;28;20038;-80
2021/12/06 01:24:39;;;;;;;6.80;3.45;;;3.60;90.40;;;;;;6241574;28;20049;-81
2021/12/06 01:28:11;;;;;;;10.75;4.25;;;3.50;90.40;;;;;;6241636;28;20042;-79
2021/12/06 01:31:14;;;;;;;7.65;3.83;;;3.50;90.50;;;;;;6241588;28;20050;-80
2021/12/06 01:40:56;;;;;;;8.43;4.68;;;3.40;90.50;;;;;;6242527;28;20573;-80
2021/12/06 01:44:07;;;;;;;10.15;4.65;;;3.40;90.40;;;;;;6244354;28;20056;-80
2021/12/06 01:47:11;;;;;;;9.63;4.82;;;3.40;90.50;;;;;;6243848;28;20054;-80
2021/12/06 01:50:16;;;;;;;11.57;5.43;;;3.50;90.60;;;;;;6243052;28;20054;-81
2021/12/06 01:53:18;;;;;;;7.63;4.32;;;3.50;90.50;;;;;;6241960;28;20141;-80
2021/12/06 01:56:21;;;;;;;9.75;4.65;;;3.50;90.60;;;;;;6243255;28;20050;-79
2021/12/06 01:59:25;;;;;;;6.82;3.83;;;3.50;90.80;;;;;;6243187;28;20049;-81
2021/12/06 02:02:29;;;;;;;7.75;3.70;;;3.50;90.50;;;;;;6245705;28;20053;-80
2021/12/06 02:05:31;;;;;;;7.25;4.35;;;3.50;90.50;;;;;;6245098;28;20101;-81
2021/12/06 02:08:33;;;;;;;11.18;4.60;;;3.50;90.50;;;;;;6245812;28;20126;-80
2021/12/06 02:11:38;;;;;;;8.30;4.80;;;3.50;90.40;;;;;;6247006;28;20046;-80
2021/12/06 02:14:49;;;;;;;11.52;4.68;;;3.50;90.40;;;;;;6244684;28;20057;-82
2021/12/06 02:17:59;;;;;;;9.77;3.88;;;3.40;90.40;;;;;;6245585;28;20110;-80
2021/12/06 02:21:10;;;;;;;9.88;5.30;;;3.40;90.50;;;;;;6245603;28;20069;-80
2021/12/06 02:24:12;;;;;;;8.82;4.10;;;3.30;90.40;;;;;;6244244;28;20113;-80
2021/12/06 02:27:15;;;;;;;11.50;5.78;;;3.30;90.40;;;;;;6244676;28;20057;-80
2021/12/06 02:30:18;;;;;;;10.75;4.93;;;3.30;90.60;;;;;;6243701;28;20550;-81
2021/12/06 02:33:21;;;;;;;14.85;6.35;;;3.30;90.50;;;;;;6245176;28;20080;-80
2021/12/06 02:36:26;;;;;;;12.20;4.93;;;3.30;90.50;;;;;;6243045;28;20096;-80
2021/12/06 02:39:29;;;;;;;12.50;5.43;;;3.40;90.50;;;;;;6244394;28;20050;-81
2021/12/06 02:42:31;;;;;;;12.90;5.28;;;3.40;90.40;;;;;;6245231;28;20052;-82
2021/12/06 02:45:33;;;;;;;19.02;6.82;;;3.50;90.50;;;;;;6245177;28;20042;-81
2021/12/06 02:48:36;;;;;;;14.30;6.05;;;3.60;90.50;;;;;;6245568;28;20050;-81
2021/12/06 02:51:39;;;;;;;18.45;5.50;;;3.70;90.40;;;;;;6247445;28;20096;-82
2021/12/06 02:54:42;;;;;;;14.98;6.35;;;3.70;90.30;;;;;;6247440;28;20049;-81
2021/12/06 02:57:46;;;;;;;13.95;6.90;;;3.80;90.60;;;;;;6247568;28;20068;-81
2021/12/06 03:00:51;;;;;;;16.17;6.55;;;3.90;90.30;;;;;;6247566;28;20046;-82
2021/12/06 03:03:54;;;;;;;13.68;6.55;;;4.00;90.30;;;;;;6247130;28;20045;-80
2021/12/06 03:06:58;;;;;;;13.27;6.68;;;4.10;90.40;;;;;;6242562;28;20064;-80
2021/12/06 03:10:00;;;;;;;18.17;7.72;;;4.20;90.30;;;;;;6236286;28;20565;-80
2021/12/06 03:13:02;;;;;;;16.15;7.10;;;4.20;90.20;;;;;;6236258;28;20046;-81
2021/12/06 03:16:05;;;;;;;18.13;7.13;;;4.20;90.10;;;;;;6236547;28;20140;-80
2021/12/06 03:19:08;;;;;;;26.23;8.75;;;4.30;90.20;;;;;;6237767;28;20073;-80
2021/12/06 03:22:13;;;;;;;13.00;5.57;;;4.40;90.20;;;;;;6236115;28;20042;-80
2021/12/06 03:25:18;;;;;;;14.35;6.68;;;4.40;90.00;;;;;;6236357;28;20060;-81
2021/12/06 03:28:20;;;;;;;17.70;7.18;;;4.40;90.10;;;;;;6236920;28;20050;-80
2021/12/06 03:31:23;;;;;;;16.25;6.55;;;4.40;90.10;;;;;;6237834;28;20113;-81
2021/12/06 03:34:26;;;;;;;15.00;5.90;;;4.40;90.20;;;;;;6237996;28;20662;-81
2021/12/06 03:37:29;;;;;;;14.60;6.82;;;4.40;90.20;;;;;;6233520;28;20050;-81
2021/12/06 03:40:31;;;;;;;14.55;5.35;;;4.40;90.10;;;;;;6237358;28;20045;-80
2021/12/06 03:43:33;;;;;;;14.40;5.75;;;4.40;90.10;;;;;;6236044;28;20218;-81
2021/12/06 03:46:35;;;;;;;16.02;6.45;;;4.40;90.10;;;;;;6236706;28;20093;-80
2021/12/06 03:49:38;;;;;;;14.55;6.15;;;4.40;90.20;;;;;;6233141;28;20038;-79
2021/12/06 03:52:41;;;;;;;12.93;5.53;;;4.40;90.30;;;;;;6231567;28;20050;-80
2021/12/06 03:55:43;;;;;;;13.73;6.28;;;4.40;90.30;;;;;;6230858;28;20058;-79
2021/12/06 03:58:47;;;;;;;14.55;6.43;;;4.50;90.30;;;;;;6255466;22;20046;-84
2021/12/06 04:01:49;;;;;;;22.02;7.65;;;4.60;90.30;;;;;;6261843;28;20418;-84
2021/12/06 04:04:51;;;;;;;10.57;5.65;;;4.60;90.50;;;;;;6261562;28;20102;-84
2021/12/06 04:07:54;;;;;;;15.48;6.75;;;4.70;90.20;;;;;;6268248;28;20045;-81
2021/12/06 04:10:56;;;;;;;18.25;6.80;;;4.80;90.20;;;;;;6264768;28;20502;-85
2021/12/06 04:13:57;;;;;;;16.40;7.00;;;4.80;90.10;;;;;;6260027;28;20457;-84
2021/12/06 04:16:59;;;;;;;17.25;7.05;;;4.90;90.10;;;;;;6258894;28;20432;-84
2021/12/06 04:20:01;;;;;;;16.50;7.15;;;5.00;90.10;;;;;;6259442;28;20503;-83
2021/12/06 04:23:08;;;;;;;19.15;7.80;;;5.00;90.10;;;;;;6265580;28;20054;-83
2021/12/06 04:26:10;;;;;;;20.67;8.77;;;5.10;90.00;;;;;;6266087;28;20625;-82
2021/12/06 04:29:12;;;;;;;24.40;8.30;;;5.10;90.00;;;;;;6265736;28;20131;-83
2021/12/06 04:32:15;;;;;;;24.33;8.18;;;5.10;90.00;;;;;;6264960;28;20056;-83
2021/12/06 04:35:17;;;;;;;22.27;7.93;;;5.20;90.00;;;;;;6264605;28;20103;-84
2021/12/06 04:38:22;;;;;;;19.25;7.97;;;5.20;90.00;;;;;;6264407;28;20523;-83
2021/12/06 04:41:24;;;;;;;21.40;8.55;;;5.20;90.00;;;;;;6264232;28;20049;-82
2021/12/06 04:44:26;;;;;;;20.52;8.23;;;5.20;90.00;;;;;;6264265;28;20419;-83
2021/12/06 04:47:28;;;;;;;19.15;7.70;;;5.20;90.00;;;;;;6263604;28;20053;-82
2021/12/06 04:50:32;;;;;;;27.25;11.18;;;5.20;89.80;;;;;;6265044;28;20132;-83
2021/12/06 04:53:40;;;;;;;32.22;9.60;;;5.20;89.90;;;;;;6265079;28;20068;-83
2021/12/06 04:56:46;;;;;;;;;;;5.20;90.10;;;;;;6264260;28;20057;-82
2021/12/06 04:59:52;;;;;;;38.55;10.68;;;5.20;90.10;;;;;;6267601;28;19920;-83
2021/12/06 05:02:55;;;;;;;65.97;11.18;;;5.20;90.00;;;;;;6269393;28;20050;-82
2021/12/06 05:06:00;;;;;;;42.25;11.02;;;5.20;90.10;;;;;;6265811;28;20045;-80
2021/12/06 05:09:09;;;;;;;40.83;10.93;;;5.20;90.10;;;;;;6264655;28;20101;-81
2021/12/06 05:12:15;;;;;;;37.95;11.40;;;5.20;90.20;;;;;;6265867;28;20061;-81
2021/12/06 05:15:18;;;;;;;50.70;11.07;;;5.20;90.10;;;;;;6267650;28;20049;-81
2021/12/06 05:18:20;;;;;;;26.27;9.23;;;5.20;90.10;;;;;;6267675;28;20201;-82
2021/12/06 05:21:22;;;;;;;127.88;13.45;;;5.10;90.20;;;;;;6267874;28;20110;-81
2021/12/06 05:24:25;;;;;;;47.72;10.88;;;5.10;90.30;;;;;;6268013;28;20111;-80
2021/12/06 05:27:28;;;;;;;65.03;10.27;;;5.10;90.40;;;;;;6267701;28;20577;-82
2021/12/06 05:30:30;;;;;;;49.85;9.40;;;5.10;90.40;;;;;;6267773;28;20045;-82
2021/12/06 05:33:32;;;;;;;68.22;10.70;;;5.10;90.30;;;;;;6267293;28;20075;-82
2021/12/06 05:36:34;;;;;;;80.68;11.57;;;5.10;90.30;;;;;;6266034;28;20060;-81
2021/12/06 05:39:38;;;;;;;43.95;10.13;;;5.20;90.40;;;;;;6265228;28;20099;-82
2021/12/06 05:42:40;;;;;;;54.95;9.43;;;5.20;90.50;;;;;;6265979;28;20112;-81
2021/12/06 05:45:42;;;;;;;93.30;14.45;;;5.10;90.40;;;;;;6265606;28;20328;-81
2021/12/06 05:48:44;;;;;;;73.70;11.15;;;5.20;90.40;;;;;;6265450;28;20129;-82
2021/12/06 05:51:45;;;;;;;63.70;10.68;;;5.10;90.50;;;;;;6265051;28;20041;-81
2021/12/06 05:54:49;;;;;;;97.88;11.98;;;5.10;90.50;;;;;;6265696;28;20054;-81
2021/12/06 05:57:51;;;;;;;41.88;8.88;;;5.10;90.60;;;;;;6265546;28;20136;-81
2021/12/06 06:00:54;;;;;;;41.25;9.52;;;5.10;90.80;;;;;;6264844;28;20042;-81
2021/12/06 06:04:00;;;;;;;44.25;10.52;;;5.10;90.70;;;;;;6263992;28;20045;-82
2021/12/06 06:07:03;;;;;;;37.13;9.07;;;5.20;90.70;;;;;;6264631;28;20056;-82
2021/12/06 06:10:07;;;;;;;55.03;10.23;;;5.30;90.70;;;;;;6263769;28;20514;-82
2021/12/06 06:13:09;;;;;;;77.72;13.85;;;5.30;90.60;;;;;;6265100;28;20065;-83
2021/12/06 06:16:11;;;;;;;77.38;11.75;;;5.30;90.50;;;;;;6264168;28;20454;-81
2021/12/06 06:19:13;;;;;;;129.68;16.08;;;5.30;90.40;;;;;;6264886;28;20457;-83
2021/12/06 06:22:14;;;;;;;41.22;8.30;;;5.30;90.40;;;;;;6275050;28;20113;-82
2021/12/06 06:25:18;;;;;;;46.47;11.52;;;5.40;90.50;;;;;;6271928;28;20107;-82
2021/12/06 06:28:20;;;;;;;62.75;12.25;;;5.40;90.70;;;;;;6269240;28;20076;-81
2021/12/06 06:31:22;;;;;;;45.13;8.50;;;5.40;90.60;;;;;;6268147;28;20080;-82
2021/12/06 06:34:24;;;;;;;59.63;10.00;;;5.30;90.50;;;;;;6268509;28;20113;-83
2021/12/06 06:37:26;;;;;;;39.83;9.32;;;5.40;90.50;;;;;;6265994;28;20072;-83
2021/12/06 06:40:29;;;;;;;32.53;8.40;;;5.40;90.50;;;;;;6265513;28;20063;-81
2021/12/06 06:43:31;;;;;;;30.80;9.32;;;5.50;90.40;;;;;;6266299;28;20128;-82
2021/12/06 06:46:33;;;;;;;32.70;9.35;;;5.50;90.30;;;;;;6264944;28;20104;-81
2021/12/06 06:49:35;;;;;;;40.35;10.20;;;5.50;90.30;;;;;;6265890;28;20109;-81
2021/12/06 06:52:37;;;;;;;39.67;11.73;;;5.50;90.40;;;;;;6265293;28;20065;-81
2021/12/06 06:55:40;;;;;;;44.22;13.57;;;5.50;90.30;;;;;;6266823;28;20108;-81
2021/12/06 06:58:42;;;;;;;47.65;12.20;;;5.50;90.30;;;;;;6266122;28;20096;-81
2021/12/06 07:01:45;;;;;;;59.88;11.18;;;5.40;90.30;;;;;;6265157;28;20605;-83
2021/12/06 07:04:47;;;;;;;47.60;12.23;;;5.50;90.30;;;;;;6264631;28;20078;-82
2021/12/06 07:07:49;;;;;;;46.58;11.15;;;5.50;90.40;;;;;;6267991;28;20072;-83
2021/12/06 07:10:54;;;;;;;46.20;11.85;;;5.50;90.50;;;;;;6268218;28;20068;-83
2021/12/06 07:13:56;;;;;;;42.17;10.25;;;5.60;90.40;;;;;;6264734;28;20445;-83
2021/12/06 07:16:58;;;;;;;39.47;10.70;;;5.60;90.20;;;;;;6266420;28;20056;-84
2021/12/06 07:20:00;;;;;;;42.40;10.95;;;5.70;90.20;;;;;;6266103;28;20109;-83
2021/12/06 07:23:04;;;;;;;42.78;10.45;;;5.70;90.00;;;;;;6268135;28;20122;-83
2021/12/06 07:26:08;;;;;;;34.33;10.40;;;5.60;90.00;;;;;;6271012;28;20057;-83
2021/12/06 07:29:09;;;;;;;31.52;8.85;;;5.60;90.10;;;;;;6265773;28;20115;-82
2021/12/06 07:32:11;;;;;;;31.17;9.35;;;5.60;90.20;;;;;;6265915;28;20476;-83
2021/12/06 07:35:13;;;;;;;33.35;8.80;;;5.60;90.30;;;;;;6264669;28;20045;-83
2021/12/06 07:38:15;;;;;;;31.33;9.95;;;5.60;90.20;;;;;;6263162;28;20116;-83
2021/12/06 07:41:21;;;;;;;39.70;11.13;;;5.60;90.20;;;;;;6262573;28;20109;-82
2021/12/06 07:44:23;;;;;;;30.85;9.65;;;5.60;90.10;;;;;;6261677;28;20065;-82
2021/12/06 07:47:25;;;;;;;37.20;9.60;;;5.70;90.00;;;;;;6262151;28;20056;-84
2021/12/06 07:50:27;;;;;;;37.25;11.27;;;5.60;89.80;;;;;;6261494;28;20053;-83
2021/12/06 07:53:30;;;;;;;28.02;9.18;;;5.50;89.80;;;;;;6263029;28;20112;-82
2021/12/06 07:56:33;;;;;;;29.73;9.93;;;5.50;90.10;;;;;;6259087;28;20041;-84
2021/12/06 07:59:36;;;;;;;29.45;9.65;;;5.50;90.00;;;;;;6261258;28;20120;-84
2021/12/06 08:02:38;;;;;;;29.08;9.65;;;5.60;90.00;;;;;;6262472;28;20125;-82
2021/12/06 08:05:44;;;;;;;36.17;12.00;;;5.60;89.90;;;;;;6260105;28;20055;-82
2021/12/06 08:08:46;;;;;;;29.63;9.80;;;5.60;90.00;;;;;;6261416;28;20105;-83
2021/12/06 08:11:50;;;;;;;31.88;11.65;;;5.60;90.00;;;;;;6262937;28;20105;-82
2021/12/06 08:14:51;;;;;;;28.58;9.13;;;5.60;89.90;;;;;;6260734;28;20140;-83
2021/12/06 08:17:53;;;;;;;35.08;10.15;;;5.70;89.80;;;;;;6260944;28;20096;-83
2021/12/06 08:20:56;;;;;;;28.77;10.65;;;5.70;90.00;;;;;;6262269;28;20049;-82
2021/12/06 08:24:00;;;;;;;32.83;10.27;;;5.80;89.90;;;;;;6262916;28;20502;-83
2021/12/06 08:27:04;;;;;;;28.90;10.10;;;5.80;89.70;;;;;;6261816;28;20435;-83
2021/12/06 08:30:08;;;;;;;27.10;9.75;;;5.90;89.70;;;;;;6261334;28;20068;-82
2021/12/06 08:33:10;;;;;;;31.13;11.00;;;5.90;89.20;;;;;;6261357;28;20041;-81
2021/12/06 08:36:13;;;;;;;28.58;9.93;;;6.00;89.20;;;;;;6259158;28;20045;-82
2021/12/06 08:39:15;;;;;;;32.00;10.18;;;6.00;88.80;;;;;;6249405;28;20144;-82
2021/12/06 08:42:18;;;;;;;29.42;9.82;;;6.00;89.00;;;;;;6256675;28;20621;-83
2021/12/06 08:45:20;;;;;;;29.45;9.77;;;6.10;89.00;;;;;;6255391;28;20463;-83
2021/12/06 08:48:24;;;;;;;29.23;10.57;;;6.10;88.60;;;;;;6255489;28;20052;-82
2021/12/06 08:51:31;;;;;;;36.35;10.88;;;6.20;88.50;;;;;;6255999;28;20063;-84
2021/12/06 08:54:33;;;;;;;31.33;9.82;;;6.20;88.20;;;;;;6255968;28;20107;-83
2021/12/06 08:57:37;;;;;;;28.55;10.57;;;6.10;88.20;;;;;;6254235;28;20124;-83
2021/12/06 09:00:39;;;;;;;35.22;10.38;;;6.20;88.40;;;;;;6255547;28;20101;-83
2021/12/06 09:03:41;;;;;;;40.90;12.40;;;6.30;88.40;;;;;;6257311;28;20396;-83
2021/12/06 09:06:46;;;;;;;31.25;10.98;;;6.40;88.20;;;;;;6257574;28;20045;-83
2021/12/06 09:09:50;;;;;;;29.52;10.50;;;6.60;88.30;;;;;;6262304;28;20049;-84
2021/12/06 09:12:53;;;;;;;23.27;8.60;;;6.70;87.90;;;;;;6262422;28;20042;-84
2021/12/06 09:15:59;;;;;;;26.70;10.68;;;6.80;87.20;;;;;;6261888;28;20136;-85
2021/12/06 09:19:01;;;;;;;25.00;9.77;;;6.80;87.30;;;;;;6248385;28;20049;-80
2021/12/06 09:22:04;;;;;;;23.88;8.48;;;6.90;86.80;;;;;;6258907;28;20076;-80
2021/12/06 09:25:08;;;;;;;18.52;7.55;;;7.00;86.90;;;;;;6260080;28;20045;-78
2021/12/06 09:28:13;;;;;;;23.40;7.85;;;7.10;86.70;;;;;;6260192;28;20042;-81
2021/12/06 09:31:16;;;;;;;22.17;8.98;;;7.30;86.10;;;;;;6260613;28;20041;-79
2021/12/06 09:34:18;;;;;;;21.73;8.45;;;7.30;85.10;;;;;;6260279;28;20053;-80
2021/12/06 09:37:20;;;;;;;17.70;8.52;;;7.40;85.70;;;;;;6261600;28;20140;-80
2021/12/06 09:40:22;;;;;;;21.08;9.52;;;7.70;85.60;;;;;;6260291;28;20507;-81
2021/12/06 09:43:26;;;;;;;19.27;8.60;;;7.90;85.00;;;;;;6268668;28;20057;-81
2021/12/06 09:46:34;;;;;;;21.88;9.68;;;8.10;84.20;;;;;;6262026;28;20064;-81
2021/12/06 09:49:36;;;;;;;15.20;7.53;;;8.10;83.50;;;;;;6263852;28;20078;-81
2021/12/06 09:52:37;;;;;;;14.52;7.22;;;8.10;82.50;;;;;;6261971;28;20121;-82
2021/12/06 09:55:40;;;;;;;18.15;7.68;;;7.90;82.60;;;;;;6270660;28;20048;-80
2021/12/06 09:58:44;;;;;;;19.02;9.00;;;7.80;82.60;;;;;;6301642;28;20033;-80
2021/12/06 10:01:50;;;;;;;15.55;8.23;;;7.80;83.00;;;;;;6299107;28;20057;-80
2021/12/06 10:04:55;;;;;;;17.00;8.65;;;7.90;82.50;;;;;;6295741;28;20108;-82
2021/12/06 10:07:59;;;;;;;18.02;8.43;;;7.90;82.40;;;;;;6293962;28;20055;-80
2021/12/06 10:11:01;;;;;;;14.80;7.53;;;8.00;82.20;;;;;;6296296;28;20045;-79
2021/12/06 10:14:05;;;;;;;17.00;7.68;;;8.10;82.00;;;;;;6294719;28;20456;-81
2021/12/06 10:17:08;;;;;;;12.60;7.82;;;7.90;81.60;;;;;;6294616;28;20430;-80
2021/12/06 10:20:10;;;;;;;14.80;7.85;;;7.90;81.70;;;;;;6275096;28;20111;-81
2021/12/06 10:23:12;;;;;;;16.73;7.15;;;8.00;81.60;;;;;;6269589;28;20072;-79
2021/12/06 10:26:17;;;;;;;14.30;7.55;;;8.10;81.70;;;;;;6277952;28;20079;-81
2021/12/06 10:29:22;;;;;;;11.60;6.75;;;8.20;81.10;;;;;;6269616;28;20049;-81
2021/12/06 10:32:28;;;;;;;17.30;6.50;;;8.30;81.50;;;;;;6271023;28;20097;-81
2021/12/06 10:35:30;;;;;;;11.07;6.30;;;8.50;80.90;;;;;;6269066;28;20132;-82
2021/12/06 10:38:34;;;;;;;12.18;6.35;;;8.90;80.30;;;;;;6272685;28;20080;-80
2021/12/06 10:41:37;;;;;;;12.85;6.78;;;9.10;79.90;;;;;;6270879;28;20059;-80
2021/12/06 10:44:50;;;;;;;10.13;5.75;;;9.40;79.20;;;;;;6270280;28;20049;-82
2021/12/06 10:48:09;;;;;;;9.40;5.63;;;9.90;78.60;;;;;;6269551;28;20038;-82
2021/12/06 10:51:14;;;;;;;9.68;5.78;;;10.20;75.20;;;;;;6262417;28;20073;-80
2021/12/06 10:54:20;;;;;;;11.77;6.15;;;10.30;74.90;;;;;;6271246;28;20053;-81
2021/12/06 10:57:22;;;;;;;10.98;6.80;;;10.80;74.00;;;;;;6270615;28;20045;-80
2021/12/06 11:00:30;;;;;;;14.15;6.10;;;11.30;73.10;;;;;;6268877;28;20061;-81
2021/12/06 11:03:35;;;;;;;7.38;4.63;;;11.70;71.50;;;;;;6270513;28;20095;-81
2021/12/06 11:06:42;;;;;;;16.58;8.88;;;12.10;69.60;;;;;;6269306;28;20049;-81
2021/12/06 11:09:46;;;;;;;8.93;4.90;;;12.30;67.50;;;;;;6269413;28;20128;-83
2021/12/06 11:12:48;;;;;;;9.35;5.93;;;12.50;66.70;;;;;;6268738;28;20049;-82
2021/12/06 11:16:16;;;;;;;11.57;5.63;;;12.50;64.60;;;;;;6267906;28;20128;-81
2021/12/06 11:19:20;;;;;;;10.23;5.68;;;12.50;65.60;;;;;;6267921;28;20104;-82
2021/12/06 11:22:24;;;;;;;9.25;6.00;;;12.70;66.20;;;;;;6267543;28;20124;-82
2021/12/06 11:25:34;;;;;;;11.55;6.70;;;12.90;65.60;;;;;;6265959;28;20446;-82
2021/12/06 11:28:35;;;;;;;11.93;6.47;;;12.90;64.10;;;;;;6267189;28;20079;-80
2021/12/06 11:31:41;;;;;;;10.27;5.75;;;13.00;64.80;;;;;;6267346;28;20099;-81
2021/12/06 11:34:46;;;;;;;12.35;4.97;;;13.20;63.40;;;;;;6267366;28;20045;-80
2021/12/06 11:37:50;;;;;;;9.38;4.80;;;13.20;62.90;;;;;;6267360;28;20072;-81
2021/12/06 11:40:57;;;;;;;9.93;5.13;;;13.40;62.70;;;;;;6266378;28;20041;-81
2021/12/06 11:44:12;;;;;;;9.23;5.07;;;13.50;61.80;;;;;;6265668;28;20045;-81
2021/12/06 11:47:17;;;;;;;6.72;4.35;;;13.60;60.40;;;;;;6262289;28;20088;-82
2021/12/06 11:50:19;;;;;;;6.80;3.72;;;13.60;61.00;;;;;;6258051;28;20104;-83
2021/12/06 11:53:24;;;;;;;6.43;3.30;;;13.70;61.20;;;;;;6263962;28;20479;-80
2021/12/06 11:56:31;;;;;;;8.27;3.55;;;13.80;60.60;;;;;;6264850;28;20060;-81
2021/12/06 11:59:33;;;;;;;8.18;4.70;;;13.80;58.90;;;;;;6264535;28;20140;-81
2021/12/06 12:02:41;;;;;;;8.82;4.03;;;13.70;58.80;;;;;;6264086;28;20069;-80
2021/12/06 12:05:43;;;;;;;5.85;3.53;;;13.50;58.20;;;;;;6263704;28;20065;-81
2021/12/06 12:08:45;;;;;;;8.68;4.30;;;13.40;59.40;;;;;;6263108;28;20132;-80
2021/12/06 12:12:04;;;;;;;7.65;3.20;;;13.30;59.30;;;;;;6261802;28;20083;-81
2021/12/06 12:15:06;;;;;;;6.35;3.50;;;13.40;60.00;;;;;;6260504;28;20072;-80
2021/12/06 12:18:09;;;;;;;5.45;3.05;;;13.50;59.70;;;;;;6262574;28;20521;-80
2021/12/06 12:21:11;;;;;;;6.25;2.97;;;13.50;58.30;;;;;;6261163;28;20483;-81
2021/12/06 12:24:13;;;;;;;6.88;3.35;;;13.30;58.50;;;;;;6262028;28;20056;-82
2021/12/06 12:27:23;;;;;;;8.15;3.92;;;13.10;59.40;;;;;;6260248;28;20049;-80
2021/12/06 12:30:31;;;;;;;7.57;4.72;;;12.70;60.70;;;;;;6260574;28;20052;-79
2021/12/06 12:33:35;;;;;;;11.63;4.47;;;12.60;61.80;;;;;;6260012;28;20518;-80
2021/12/06 12:36:39;;;;;;;7.60;3.10;;;12.30;61.70;;;;;;6260073;28;20109;-80
2021/12/06 12:39:41;;;;;;;6.20;2.47;;;12.00;62.60;;;;;;6257793;28;20041;-81
2021/12/06 12:42:55;;;;;;;4.43;2.60;;;11.80;62.20;;;;;;6264340;28;20107;-81
2021/12/06 12:45:58;;;;;;;8.68;3.00;;;11.80;62.10;;;;;;6267068;28;20148;-81
2021/12/06 12:49:05;;;;;;;9.52;2.63;;;11.80;62.80;;;;;;6266321;28;20045;-81
2021/12/06 12:52:07;;;;;;;5.22;3.10;;;12.00;61.60;;;;;;6260831;28;20049;-79
2021/12/06 12:55:24;;;;;;;5.57;3.08;;;11.90;61.30;;;;;;6269308;28;20053;-79
2021/12/06 12:58:27;;;;;;;6.10;2.95;;;12.00;61.70;;;;;;6264189;28;20124;-81
2021/12/06 13:01:29;;;;;;;5.78;2.80;;;12.30;61.10;;;;;;6265109;28;20132;-81
2021/12/06 13:05:13;;;;;;;5.90;2.08;;;12.40;60.90;;;;;;6265975;28;20065;-80
2021/12/06 13:08:15;;;;;;;35.83;23.45;;;12.60;59.90;;;;;;6267053;28;20053;-81
2021/12/06 13:11:17;;;;;;;5.80;3.00;;;12.30;59.70;;;;;;6265523;28;20395;-80
2021/12/06 13:14:27;;;;;;;6.30;4.60;;;12.00;60.40;;;;;;6264685;28;20049;-81
2021/12/06 13:17:35;;;;;;;5.88;2.78;;;11.60;61.20;;;;;;6264999;28;20049;-80
2021/12/06 13:20:38;;;;;;;4.60;3.28;;;11.20;62.10;;;;;;6265915;28;20041;-83
2021/12/06 13:23:40;;;;;;;23.65;12.25;;;10.70;63.80;;;;;;6264718;28;20064;-81
2021/12/06 13:26:44;;;;;;;6.80;3.60;;;10.50;64.60;;;;;;6267286;28;20077;-81
2021/12/06 13:29:48;;;;;;;8.23;3.38;;;10.20;65.30;;;;;;6276168;28;20046;-79
2021/12/06 13:32:57;;;;;;;10.10;4.53;;;10.10;65.60;;;;;;6276436;28;20055;-81
2021/12/06 13:36:00;;;;;;;;;;;10.00;66.20;;;;;;6272820;28;20118;-82
2021/12/06 13:39:02;;;;;;;10.20;4.68;;;9.80;66.90;;;;;;6271862;28;19948;-81
2021/12/06 13:42:07;;;;;;;22.55;13.50;;;9.60;67.00;;;;;;6270644;28;20403;-80
2021/12/06 13:45:17;;;;;;;14.98;6.88;;;9.50;67.50;;;;;;6268080;28;20053;-81
2021/12/06 13:48:23;;;;;;;8.13;4.05;;;9.40;68.30;;;;;;6267266;28;20069;-81
2021/12/06 13:51:46;;;;;;;6.15;2.88;;;9.30;68.40;;;;;;6269242;28;20045;-79
2021/12/06 13:54:50;;;;;;;11.38;3.15;;;9.20;69.20;;;;;;6270790;28;20072;-79
2021/12/06 13:57:56;;;;;;;8.20;2.88;;;9.10;68.70;;;;;;6270150;28;20045;-80
2021/12/06 14:01:01;;;;;;;5.90;2.88;;;9.10;69.10;;;;;;6269938;28;20035;-81
2021/12/06 14:04:05;;;;;;;9.82;3.72;;;8.90;69.10;;;;;;6268906;28;20045;-80
2021/12/06 14:07:10;;;;;;;11.27;3.17;;;8.80;70.10;;;;;;6270500;28;20060;-81
2021/12/06 14:10:14;;;;;;;31.08;17.42;;;8.80;70.70;;;;;;6270650;28;20073;-81
2021/12/06 14:13:16;;;;;;;17.83;5.60;;;8.70;70.50;;;;;;6272507;28;20059;-79
2021/12/06 14:16:18;;;;;;;6.68;3.67;;;8.70;70.80;;;;;;6268439;28;20095;-79
2021/12/06 14:19:25;;;;;;;41.15;22.80;;;8.60;71.00;;;;;;6268793;28;20085;-80
2021/12/06 14:22:31;;;;;;;7.13;4.93;;;8.60;71.30;;;;;;6269147;28;20051;-81
2021/12/06 14:25:34;;;;;;;5.93;2.97;;;8.60;71.70;;;;;;6268633;28;20315;-79
2021/12/06 14:28:44;;;;;;;8.35;3.08;;;8.50;71.90;;;;;;6267145;28;20042;-81
2021/12/06 14:31:48;;;;;;;46.72;24.00;;;8.40;72.50;;;;;;6269130;28;20105;-79
2021/12/06 14:34:51;;;;;;;21.42;12.18;;;8.40;72.60;;;;;;6266746;28;20053;-80
2021/12/06 14:37:55;;;;;;;19.52;10.13;;;8.40;72.90;;;;;;6263662;28;20113;-81
2021/12/06 14:40:59;;;;;;;9.80;6.13;;;8.40;72.80;;;;;;6262617;28;20047;-82
2021/12/06 14:44:00;;;;;;;10.90;4.72;;;8.40;73.20;;;;;;6263726;28;20051;-82
2021/12/06 14:47:03;;;;;;;13.75;7.25;;;8.40;73.30;;;;;;6265165;28;20045;-80
2021/12/06 14:50:09;;;;;;;8.07;4.53;;;8.40;73.70;;;;;;6265433;28;20038;-81
2021/12/06 14:53:20;;;;;;;9.75;5.22;;;8.30;74.10;;;;;;6265262;28;20069;-81
2021/12/06 14:56:30;;;;;;;7.47;4.20;;;8.20;74.60;;;;;;6265207;28;20049;-79
2021/12/06 14:59:34;;;;;;;12.10;5.90;;;8.10;75.00;;;;;;6265263;28;20492;-79
2021/12/06 15:02:48;;;;;;;7.88;5.45;;;8.00;75.40;;;;;;6266344;28;20411;-80
2021/12/06 15:05:53;;;;;;;8.32;4.95;;;8.00;75.80;;;;;;6266391;28;20068;-78
2021/12/06 15:08:56;;;;;;;8.73;3.95;;;8.00;76.00;;;;;;6267420;28;20057;-79
2021/12/06 15:12:01;;;;;;;10.02;4.38;;;7.90;76.00;;;;;;6266626;28;20120;-80
2021/12/06 15:15:05;;;;;;;8.40;3.92;;;7.90;76.30;;;;;;6267852;28;20049;-79
2021/12/06 15:18:10;;;;;;;23.90;11.95;;;7.80;76.50;;;;;;6265704;28;20049;-80
2021/12/06 15:21:14;;;;;;;7.43;4.22;;;7.80;76.70;;;;;;6263997;28;20069;-80
2021/12/06 15:24:18;;;;;;;9.68;3.90;;;7.60;76.90;;;;;;6263797;28;20049;-79
2021/12/06 15:27:20;;;;;;;10.77;4.43;;;7.60;77.30;;;;;;6263152;28;20049;-80
2021/12/06 15:30:24;;;;;;;8.32;4.05;;;7.50;77.40;;;;;;6262737;28;20220;-80
2021/12/06 15:33:28;;;;;;;9.65;4.65;;;7.50;77.80;;;;;;6263258;28;20049;-80
2021/12/06 15:36:30;;;;;;;9.40;4.10;;;7.40;78.10;;;;;;6262430;28;20053;-78
2021/12/06 15:39:34;;;;;;;8.23;3.58;;;7.30;78.30;;;;;;6263243;28;21193;-79
2021/12/06 15:42:35;;;;;;;8.85;4.80;;;7.30;78.40;;;;;;6262141;28;20045;-79
2021/12/06 15:45:38;;;;;;;9.75;4.38;;;7.30;78.70;;;;;;6260658;28;20049;-79
2021/12/06 15:48:42;;;;;;;10.35;4.18;;;7.20;78.80;;;;;;6261740;28;20045;-79
2021/12/06 15:51:46;;;;;;;7.60;4.65;;;7.10;78.90;;;;;;6262285;28;20048;-81
2021/12/06 15:54:55;;;;;;;9.50;4.15;;;7.10;79.10;;;;;;6261935;28;20133;-79
2021/12/06 15:58:02;;;;;;;7.00;3.67;;;7.00;79.20;;;;;;6261031;28;20051;-78
2021/12/06 16:01:08;;;;;;;9.80;4.65;;;7.00;79.40;;;;;;6277652;22;20048;-84
2021/12/06 16:04:11;;;;;;;14.93;4.95;;;6.90;79.50;;;;;;6246658;28;20057;-82
2021/12/06 16:07:32;;;;;;;11.27;4.75;;;6.90;79.70;;;;;;6245370;28;20088;-85